createdAt,value
2018-07-12T00:00:14.501Z,19.71
2018-07-12T00:00:40.644Z,19.66
2018-07-12T00:01:06.804Z,19.71
2018-07-12T00:01:32.944Z,19.71
2018-07-12T00:01:59.082Z,19.7
2018-07-12T00:02:25.815Z,19.66
2018-07-12T00:02:51.954Z,19.73
2018-07-12T00:03:18.139Z,19.71
2018-07-12T00:03:44.278Z,19.67
2018-07-12T00:04:10.415Z,19.67
2018-07-12T00:04:36.579Z,19.66
2018-07-12T00:05:02.723Z,19.71
2018-07-12T00:05:28.859Z,19.69
2018-07-12T00:05:56.030Z,19.66
2018-07-12T00:06:23.663Z,19.74
2018-07-12T00:06:51.485Z,19.7
2018-07-12T00:07:18.357Z,19.66
2018-07-12T00:07:45.269Z,19.66
2018-07-12T00:08:11.409Z,19.69
2018-07-12T00:08:37.963Z,19.64
2018-07-12T00:09:04.104Z,19.66
2018-07-12T00:09:30.237Z,19.67
2018-07-12T00:09:56.400Z,19.73
2018-07-12T00:10:22.589Z,19.67
2018-07-12T00:10:48.746Z,19.74
2018-07-12T00:11:14.877Z,19.7
2018-07-12T00:11:41.049Z,19.7
2018-07-12T00:12:07.157Z,19.66
2018-07-12T00:12:33.293Z,19.62
2018-07-12T00:12:59.432Z,19.64
2018-07-12T00:13:25.571Z,19.7
2018-07-12T00:13:51.708Z,19.7
2018-07-12T00:14:17.847Z,19.69
2018-07-12T00:14:44.016Z,19.71
2018-07-12T00:15:10.180Z,19.66
2018-07-12T00:15:36.322Z,19.7
2018-07-12T00:16:02.459Z,19.69
2018-07-12T00:16:28.609Z,19.79
2018-07-12T00:16:54.761Z,19.77
2018-07-12T00:17:20.896Z,19.77
2018-07-12T00:17:47.062Z,19.79
2018-07-12T00:18:13.207Z,19.74
2018-07-12T00:18:39.366Z,19.67
2018-07-12T00:19:05.503Z,19.69
2018-07-12T00:19:31.636Z,19.76
2018-07-12T00:19:57.802Z,19.67
2018-07-12T00:20:23.964Z,19.76
2018-07-12T00:20:50.095Z,19.79
2018-07-12T00:21:16.235Z,19.67
2018-07-12T00:21:42.397Z,19.69
2018-07-12T00:22:08.533Z,19.67
2018-07-12T00:22:34.672Z,19.71
2018-07-12T00:23:00.812Z,19.7
2018-07-12T00:23:26.940Z,19.79
2018-07-12T00:23:53.081Z,19.64
2018-07-12T00:24:19.218Z,19.67
2018-07-12T00:24:45.349Z,19.67
2018-07-12T00:25:11.486Z,19.7
2018-07-12T00:25:37.625Z,19.69
2018-07-12T00:26:03.765Z,19.7
2018-07-12T00:26:29.922Z,19.7
2018-07-12T00:26:56.083Z,19.69
2018-07-12T00:27:22.222Z,19.64
2018-07-12T00:27:48.353Z,19.69
2018-07-12T00:28:14.497Z,19.69
2018-07-12T00:28:40.639Z,19.62
2018-07-12T00:29:06.775Z,19.62
2018-07-12T00:29:32.908Z,19.62
2018-07-12T00:29:59.050Z,19.63
2018-07-12T00:30:25.197Z,19.66
2018-07-12T00:30:51.357Z,19.58
2018-07-12T00:31:17.497Z,19.55
2018-07-12T00:31:43.634Z,19.58
2018-07-12T00:32:09.815Z,19.56
2018-07-12T00:32:35.979Z,19.56
2018-07-12T00:33:02.117Z,19.56
2018-07-12T00:33:28.280Z,19.59
2018-07-12T00:33:54.436Z,19.55
2018-07-12T00:34:20.564Z,19.54
2018-07-12T00:34:46.704Z,19.58
2018-07-12T00:35:12.888Z,19.55
2018-07-12T00:35:39.051Z,19.52
2018-07-12T00:36:05.188Z,19.52
2018-07-12T00:36:31.325Z,19.55
2018-07-12T00:36:57.465Z,19.49
2018-07-12T00:37:23.603Z,19.48
2018-07-12T00:37:49.737Z,19.51
2018-07-12T00:38:15.868Z,19.51
2018-07-12T00:38:42.001Z,19.47
2018-07-12T00:39:08.138Z,19.45
2018-07-12T00:39:34.278Z,19.49
2018-07-12T00:40:00.417Z,19.41
2018-07-12T00:40:26.558Z,19.44
2018-07-12T00:40:52.688Z,19.41
2018-07-12T00:41:18.853Z,19.44
2018-07-12T00:41:45.004Z,19.49
2018-07-12T00:42:11.144Z,19.39
2018-07-12T00:42:37.283Z,19.44
2018-07-12T00:43:03.421Z,19.48
2018-07-12T00:43:29.558Z,19.41
2018-07-12T00:43:55.702Z,19.37
2018-07-12T00:44:21.851Z,19.37
2018-07-12T00:44:48.038Z,19.41
2018-07-12T00:45:14.180Z,19.39
2018-07-12T00:45:40.344Z,19.45
2018-07-12T00:46:06.484Z,19.4
2018-07-12T00:46:32.618Z,19.33
2018-07-12T00:46:58.832Z,19.31
2018-07-12T00:47:24.969Z,19.31
2018-07-12T00:47:51.128Z,19.34
2018-07-12T00:48:17.302Z,19.26
2018-07-12T00:48:43.437Z,19.27
2018-07-12T00:49:09.576Z,19.24
2018-07-12T00:49:35.731Z,19.24
2018-07-12T00:50:01.871Z,19.3
2018-07-12T00:50:28.015Z,19.3
2018-07-12T00:50:54.179Z,19.22
2018-07-12T00:51:20.323Z,19.21
2018-07-12T00:51:46.455Z,19.16
2018-07-12T00:52:12.597Z,19.22
2018-07-12T00:52:38.752Z,19.15
2018-07-12T00:53:04.898Z,19.15
2018-07-12T00:53:31.039Z,19.22
2018-07-12T00:53:57.199Z,19.12
2018-07-12T00:54:23.339Z,19.24
2018-07-12T00:54:49.482Z,19.16
2018-07-12T00:55:15.614Z,19.26
2018-07-12T00:55:41.743Z,19.26
2018-07-12T00:56:07.886Z,19.16
2018-07-12T00:56:34.035Z,19.16
2018-07-12T00:57:00.230Z,19.19
2018-07-12T00:57:26.351Z,19.24
2018-07-12T00:57:52.495Z,19.11
2018-07-12T00:58:18.634Z,19.11
2018-07-12T00:58:44.774Z,19.12
2018-07-12T00:59:10.912Z,19.09
2018-07-12T00:59:37.059Z,19.11
2018-07-12T01:00:03.222Z,19.11
2018-07-12T01:00:29.383Z,19.09
2018-07-12T01:00:55.489Z,19.11
2018-07-12T01:01:21.673Z,19.11
2018-07-12T01:01:47.762Z,19.12
2018-07-12T01:02:13.899Z,19.09
2018-07-12T01:02:40.055Z,19.14
2018-07-12T01:03:06.197Z,19.12
2018-07-12T01:03:32.330Z,19.07
2018-07-12T01:03:58.493Z,19.08
2018-07-12T01:04:24.637Z,19.04
2018-07-12T01:04:50.772Z,19.11
2018-07-12T01:05:16.915Z,19.15
2018-07-12T01:05:43.053Z,19.07
2018-07-12T01:06:09.190Z,19.11
2018-07-12T01:06:35.328Z,19.09
2018-07-12T01:07:01.461Z,19.09
2018-07-12T01:07:27.603Z,19.08
2018-07-12T01:07:53.745Z,19.04
2018-07-12T01:08:19.879Z,19.07
2018-07-12T01:08:46.019Z,19.09
2018-07-12T01:09:12.148Z,19.07
2018-07-12T01:09:38.286Z,19
2018-07-12T01:10:04.448Z,19.09
2018-07-12T01:10:30.589Z,19.08
2018-07-12T01:10:56.796Z,19.07
2018-07-12T01:11:22.934Z,19.02
2018-07-12T01:11:49.102Z,19
2018-07-12T01:12:15.237Z,19.08
2018-07-12T01:12:41.378Z,19.04
2018-07-12T01:13:07.515Z,19.09
2018-07-12T01:13:33.656Z,19.02
2018-07-12T01:13:59.794Z,19.07
2018-07-12T01:14:25.935Z,19.02
2018-07-12T01:14:52.066Z,18.93
2018-07-12T01:15:18.208Z,18.98
2018-07-12T01:15:44.368Z,19.02
2018-07-12T01:16:10.531Z,18.99
2018-07-12T01:16:36.673Z,18.99
2018-07-12T01:17:02.807Z,19.04
2018-07-12T01:17:28.947Z,19
2018-07-12T01:17:55.121Z,18.99
2018-07-12T01:18:21.260Z,18.89
2018-07-12T01:18:47.401Z,19.07
2018-07-12T01:19:13.543Z,19.02
2018-07-12T01:19:39.679Z,18.93
2018-07-12T01:20:05.839Z,18.92
2018-07-12T01:20:32.008Z,18.89
2018-07-12T01:20:58.154Z,18.95
2018-07-12T01:21:24.309Z,18.86
2018-07-12T01:21:50.451Z,18.9
2018-07-12T01:22:16.583Z,18.9
2018-07-12T01:22:42.729Z,18.95
2018-07-12T01:23:08.867Z,18.88
2018-07-12T01:23:35.002Z,18.9
2018-07-12T01:24:01.142Z,18.83
2018-07-12T01:24:27.303Z,18.88
2018-07-12T01:24:53.443Z,18.84
2018-07-12T01:25:19.589Z,18.88
2018-07-12T01:25:45.723Z,18.89
2018-07-12T01:26:11.859Z,18.89
2018-07-12T01:26:38.027Z,18.9
2018-07-12T01:27:04.231Z,18.89
2018-07-12T01:27:30.372Z,18.89
2018-07-12T01:27:56.502Z,18.92
2018-07-12T01:28:22.646Z,18.89
2018-07-12T01:28:48.776Z,18.88
2018-07-12T01:29:14.945Z,18.83
2018-07-12T01:29:41.087Z,18.89
2018-07-12T01:30:07.231Z,18.88
2018-07-12T01:30:33.372Z,18.88
2018-07-12T01:30:59.508Z,18.88
2018-07-12T01:31:25.650Z,18.84
2018-07-12T01:31:51.782Z,18.9
2018-07-12T01:32:17.920Z,18.9
2018-07-12T01:32:44.059Z,18.95
2018-07-12T01:33:10.195Z,18.99
2018-07-12T01:33:36.337Z,18.98
2018-07-12T01:34:02.468Z,18.9
2018-07-12T01:34:28.607Z,18.93
2018-07-12T01:34:54.748Z,18.89
2018-07-12T01:35:20.911Z,18.93
2018-07-12T01:35:47.045Z,19.04
2018-07-12T01:36:13.282Z,18.96
2018-07-12T01:36:39.350Z,18.9
2018-07-12T01:37:05.509Z,18.9
2018-07-12T01:37:31.649Z,18.9
2018-07-12T01:37:57.791Z,18.86
2018-07-12T01:38:23.927Z,18.89
2018-07-12T01:38:50.059Z,18.92
2018-07-12T01:39:16.199Z,18.92
2018-07-12T01:39:42.333Z,19.02
2018-07-12T01:40:08.477Z,19.02
2018-07-12T01:40:34.609Z,19.04
2018-07-12T01:41:00.753Z,19.04
2018-07-12T01:41:26.888Z,19
2018-07-12T01:41:53.042Z,18.99
2018-07-12T01:42:19.169Z,19.04
2018-07-12T01:42:45.335Z,18.99
2018-07-12T01:43:11.475Z,18.93
2018-07-12T01:43:37.620Z,19.07
2018-07-12T01:44:03.758Z,18.93
2018-07-12T01:44:29.900Z,18.98
2018-07-12T01:44:56.033Z,19
2018-07-12T01:45:22.195Z,19.02
2018-07-12T01:45:48.357Z,18.99
2018-07-12T01:46:14.498Z,19.02
2018-07-12T01:46:40.653Z,18.92
2018-07-12T01:47:06.787Z,18.93
2018-07-12T01:47:32.922Z,18.9
2018-07-12T01:47:59.084Z,18.9
2018-07-12T01:48:25.228Z,18.9
2018-07-12T01:48:51.365Z,18.9
2018-07-12T01:49:17.502Z,18.9
2018-07-12T01:49:43.641Z,18.86
2018-07-12T01:50:09.776Z,18.86
2018-07-12T01:50:35.936Z,18.83
2018-07-12T01:51:02.084Z,18.86
2018-07-12T01:51:28.212Z,18.8
2018-07-12T01:51:54.351Z,18.83
2018-07-12T01:52:20.489Z,18.88
2018-07-12T01:52:46.648Z,18.83
2018-07-12T01:53:12.803Z,18.88
2018-07-12T01:53:38.947Z,18.93
2018-07-12T01:54:05.088Z,18.89
2018-07-12T01:54:31.223Z,18.89
2018-07-12T01:54:57.359Z,18.83
2018-07-12T01:55:23.498Z,18.84
2018-07-12T01:55:49.628Z,18.83
2018-07-12T01:56:15.779Z,18.86
2018-07-12T01:56:41.910Z,18.89
2018-07-12T01:57:08.057Z,18.83
2018-07-12T01:57:34.212Z,18.84
2018-07-12T01:58:00.353Z,18.81
2018-07-12T01:58:26.509Z,18.77
2018-07-12T01:58:52.685Z,18.78
2018-07-12T01:59:18.820Z,18.8
2018-07-12T01:59:44.956Z,18.78
2018-07-12T02:00:11.091Z,18.83
2018-07-12T02:00:37.329Z,18.75
2018-07-12T02:01:03.410Z,18.89
2018-07-12T02:01:29.570Z,18.75
2018-07-12T02:01:55.717Z,18.74
2018-07-12T02:02:21.847Z,18.81
2018-07-12T02:02:47.986Z,18.81
2018-07-12T02:03:14.131Z,18.81
2018-07-12T02:03:40.271Z,18.71
2018-07-12T02:04:06.403Z,18.75
2018-07-12T02:04:32.545Z,18.75
2018-07-12T02:04:58.682Z,18.7
2018-07-12T02:05:24.851Z,18.71
2018-07-12T02:05:50.975Z,18.74
2018-07-12T02:06:17.108Z,18.74
2018-07-12T02:06:43.273Z,18.75
2018-07-12T02:07:09.430Z,18.68
2018-07-12T02:07:35.568Z,18.73
2018-07-12T02:08:01.762Z,18.73
2018-07-12T02:08:27.900Z,18.71
2018-07-12T02:08:54.038Z,18.7
2018-07-12T02:09:20.175Z,18.66
2018-07-12T02:09:46.338Z,18.68
2018-07-12T02:10:12.486Z,18.65
2018-07-12T02:10:38.638Z,18.66
2018-07-12T02:11:04.777Z,18.65
2018-07-12T02:11:30.910Z,18.62
2018-07-12T02:11:57.052Z,18.66
2018-07-12T02:12:23.210Z,18.65
2018-07-12T02:12:49.355Z,18.58
2018-07-12T02:13:15.515Z,18.62
2018-07-12T02:13:41.679Z,18.65
2018-07-12T02:14:07.813Z,18.68
2018-07-12T02:14:33.972Z,18.65
2018-07-12T02:15:00.120Z,18.66
2018-07-12T02:15:26.276Z,18.65
2018-07-12T02:15:52.417Z,18.62
2018-07-12T02:16:18.551Z,18.59
2018-07-12T02:16:44.712Z,18.68
2018-07-12T02:17:10.868Z,18.66
2018-07-12T02:17:37.032Z,18.63
2018-07-12T02:18:03.162Z,18.6
2018-07-12T02:18:29.302Z,18.63
2018-07-12T02:18:55.471Z,18.63
2018-07-12T02:19:21.610Z,18.62
2018-07-12T02:19:47.743Z,18.59
2018-07-12T02:20:13.880Z,18.65
2018-07-12T02:20:40.015Z,18.62
2018-07-12T02:21:06.159Z,18.62
2018-07-12T02:21:32.318Z,18.5
2018-07-12T02:21:58.453Z,18.52
2018-07-12T02:22:24.595Z,18.55
2018-07-12T02:22:50.734Z,18.5
2018-07-12T02:23:16.864Z,18.55
2018-07-12T02:23:43.004Z,18.49
2018-07-12T02:24:09.146Z,18.53
2018-07-12T02:24:35.308Z,18.55
2018-07-12T02:25:01.434Z,18.52
2018-07-12T02:25:27.599Z,18.52
2018-07-12T02:25:53.739Z,18.4
2018-07-12T02:26:19.877Z,18.58
2018-07-12T02:26:46.535Z,18.5
2018-07-12T02:27:12.692Z,18.49
2018-07-12T02:27:38.890Z,18.47
2018-07-12T02:28:04.972Z,18.55
2018-07-12T02:28:31.105Z,18.49
2018-07-12T02:28:57.238Z,18.5
2018-07-12T02:29:23.378Z,18.52
2018-07-12T02:29:49.513Z,18.5
2018-07-12T02:30:15.685Z,18.53
2018-07-12T02:30:41.849Z,18.5
2018-07-12T02:31:08.034Z,18.5
2018-07-12T02:31:34.189Z,18.55
2018-07-12T02:32:00.359Z,18.55
2018-07-12T02:32:26.492Z,18.52
2018-07-12T02:32:52.652Z,18.47
2018-07-12T02:33:18.825Z,18.41
2018-07-12T02:33:45.002Z,18.38
2018-07-12T02:34:11.146Z,18.4
2018-07-12T02:34:37.281Z,18.43
2018-07-12T02:35:03.529Z,18.45
2018-07-12T02:35:29.642Z,18.37
2018-07-12T02:35:55.801Z,18.41
2018-07-12T02:36:21.941Z,18.41
2018-07-12T02:36:48.102Z,18.4
2018-07-12T02:37:14.264Z,18.43
2018-07-12T02:37:40.426Z,18.33
2018-07-12T02:38:06.594Z,18.41
2018-07-12T02:38:32.760Z,18.4
2018-07-12T02:38:58.939Z,18.34
2018-07-12T02:39:25.130Z,18.31
2018-07-12T02:39:51.285Z,18.34
2018-07-12T02:40:17.453Z,18.34
2018-07-12T02:40:43.644Z,18.4
2018-07-12T02:41:09.781Z,18.4
2018-07-12T02:41:35.996Z,18.26
2018-07-12T02:42:02.210Z,18.29
2018-07-12T02:42:28.375Z,18.29
2018-07-12T02:42:54.555Z,18.25
2018-07-12T02:43:20.711Z,18.25
2018-07-12T02:43:46.873Z,18.23
2018-07-12T02:44:13.062Z,18.28
2018-07-12T02:44:39.206Z,18.26
2018-07-12T02:45:05.350Z,18.28
2018-07-12T02:45:31.518Z,18.2
2018-07-12T02:45:57.722Z,18.28
2018-07-12T02:46:23.871Z,18.26
2018-07-12T02:46:50.008Z,18.35
2018-07-12T02:47:16.142Z,18.25
2018-07-12T02:47:42.301Z,18.26
2018-07-12T02:48:08.493Z,18.29
2018-07-12T02:48:34.681Z,18.29
2018-07-12T02:49:00.833Z,18.29
2018-07-12T02:49:26.994Z,18.25
2018-07-12T02:49:53.156Z,18.25
2018-07-12T02:50:19.346Z,18.22
2018-07-12T02:50:45.517Z,18.25
2018-07-12T02:51:11.680Z,18.19
2018-07-12T02:51:37.840Z,18.25
2018-07-12T02:52:03.980Z,18.23
2018-07-12T02:52:30.117Z,18.31
2018-07-12T02:52:56.248Z,18.2
2018-07-12T02:53:22.414Z,18.28
2018-07-12T02:53:48.593Z,18.28
2018-07-12T02:54:14.750Z,18.2
2018-07-12T02:54:40.890Z,18.28
2018-07-12T02:55:07.081Z,18.31
2018-07-12T02:55:33.262Z,18.28
2018-07-12T02:55:59.422Z,18.22
2018-07-12T02:56:25.586Z,18.25
2018-07-12T02:56:51.766Z,18.25
2018-07-12T02:57:17.917Z,18.16
2018-07-12T02:57:44.063Z,18.25
2018-07-12T02:58:10.224Z,18.22
2018-07-12T02:58:36.397Z,18.2
2018-07-12T02:59:02.559Z,18.23
2018-07-12T02:59:28.771Z,18.22
2018-07-12T02:59:54.907Z,18.13
2018-07-12T03:00:21.043Z,18.19
2018-07-12T03:00:47.202Z,18.2
2018-07-12T03:01:13.485Z,18.25
2018-07-12T03:01:39.668Z,18.2
2018-07-12T03:02:05.803Z,18.19
2018-07-12T03:02:31.987Z,18.16
2018-07-12T03:02:58.148Z,18.25
2018-07-12T03:03:24.335Z,18.22
2018-07-12T03:03:50.503Z,18.2
2018-07-12T03:04:16.643Z,18.13
2018-07-12T03:04:42.810Z,18.23
2018-07-12T03:05:08.972Z,18.19
2018-07-12T03:05:35.130Z,18.1
2018-07-12T03:06:01.354Z,18.13
2018-07-12T03:06:27.495Z,18.15
2018-07-12T03:06:53.657Z,18.15
2018-07-12T03:07:19.794Z,18.15
2018-07-12T03:07:45.959Z,18.18
2018-07-12T03:08:12.165Z,18.1
2018-07-12T03:08:38.356Z,18.13
2018-07-12T03:09:04.524Z,18.08
2018-07-12T03:09:30.685Z,18.19
2018-07-12T03:09:56.849Z,18.2
2018-07-12T03:10:22.974Z,18.18
2018-07-12T03:10:49.172Z,18.23
2018-07-12T03:11:15.331Z,18.26
2018-07-12T03:11:41.470Z,18.22
2018-07-12T03:12:07.638Z,18.18
2018-07-12T03:12:33.814Z,18.18
2018-07-12T03:13:00.011Z,18.16
2018-07-12T03:13:26.168Z,18.11
2018-07-12T03:13:52.306Z,18.16
2018-07-12T03:14:18.438Z,18.15
2018-07-12T03:14:44.607Z,18.16
2018-07-12T03:15:10.767Z,18.15
2018-07-12T03:15:36.998Z,18.07
2018-07-12T03:16:03.362Z,18.11
2018-07-12T03:16:29.622Z,18.13
2018-07-12T03:16:55.921Z,18.19
2018-07-12T03:17:22.178Z,18.19
2018-07-12T03:17:48.331Z,18.15
2018-07-12T03:18:14.516Z,18.2
2018-07-12T03:18:40.685Z,18.11
2018-07-12T03:19:06.846Z,18.18
2018-07-12T03:19:33.038Z,18.07
2018-07-12T03:19:59.169Z,18.22
2018-07-12T03:20:25.310Z,18.11
2018-07-12T03:20:51.439Z,18.13
2018-07-12T03:21:17.625Z,18.16
2018-07-12T03:21:43.766Z,18.08
2018-07-12T03:22:09.950Z,18.2
2018-07-12T03:22:36.110Z,18.15
2018-07-12T03:23:02.264Z,18.11
2018-07-12T03:23:28.424Z,18.13
2018-07-12T03:23:54.588Z,18.16
2018-07-12T03:24:20.738Z,18.15
2018-07-12T03:24:46.895Z,18.11
2018-07-12T03:25:13.034Z,18.1
2018-07-12T03:25:39.174Z,18.07
2018-07-12T03:26:05.313Z,18.1
2018-07-12T03:26:31.501Z,18.16
2018-07-12T03:26:57.643Z,18.1
2018-07-12T03:27:23.780Z,18.1
2018-07-12T03:27:49.941Z,18.07
2018-07-12T03:28:16.072Z,18.07
2018-07-12T03:28:42.206Z,18.04
2018-07-12T03:29:08.353Z,18.08
2018-07-12T03:29:34.513Z,18.05
2018-07-12T03:30:00.647Z,18.03
2018-07-12T03:30:26.825Z,18.05
2018-07-12T03:30:53.024Z,18.03
2018-07-12T03:31:19.133Z,18.07
2018-07-12T03:31:45.365Z,18.01
2018-07-12T03:32:11.436Z,18.08
2018-07-12T03:32:37.610Z,18.07
2018-07-12T03:33:03.748Z,18.08
2018-07-12T03:33:29.890Z,18.04
2018-07-12T03:33:56.030Z,18.05
2018-07-12T03:34:22.165Z,18.08
2018-07-12T03:34:48.301Z,18.15
2018-07-12T03:35:14.462Z,18.01
2018-07-12T03:35:40.629Z,18.13
2018-07-12T03:36:06.760Z,18.08
2018-07-12T03:36:32.898Z,18.1
2018-07-12T03:36:59.041Z,18.13
2018-07-12T03:37:25.178Z,18.05
2018-07-12T03:37:51.314Z,18.07
2018-07-12T03:38:17.446Z,18.07
2018-07-12T03:38:43.593Z,18.11
2018-07-12T03:39:09.725Z,18.08
2018-07-12T03:39:35.862Z,18.1
2018-07-12T03:40:02.004Z,18.1
2018-07-12T03:40:28.193Z,18.07
2018-07-12T03:40:54.321Z,18.08
2018-07-12T03:41:20.464Z,18.07
2018-07-12T03:41:46.599Z,18.15
2018-07-12T03:42:12.737Z,18.1
2018-07-12T03:42:38.873Z,18.08
2018-07-12T03:43:05.012Z,18.04
2018-07-12T03:43:31.150Z,18.08
2018-07-12T03:43:57.293Z,18.04
2018-07-12T03:44:23.431Z,18
2018-07-12T03:44:49.577Z,17.97
2018-07-12T03:45:15.758Z,18.03
2018-07-12T03:45:41.917Z,18.03
2018-07-12T03:46:08.060Z,18
2018-07-12T03:46:34.249Z,18
2018-07-12T03:47:00.386Z,17.92
2018-07-12T03:47:26.533Z,17.97
2018-07-12T03:47:52.695Z,17.98
2018-07-12T03:48:18.832Z,17.95
2018-07-12T03:48:44.991Z,17.83
2018-07-12T03:49:11.127Z,17.89
2018-07-12T03:49:37.260Z,17.89
2018-07-12T03:50:03.406Z,17.87
2018-07-12T03:50:29.546Z,17.97
2018-07-12T03:50:55.678Z,17.87
2018-07-12T03:51:21.812Z,17.9
2018-07-12T03:51:47.956Z,17.94
2018-07-12T03:52:14.087Z,17.95
2018-07-12T03:52:40.229Z,18
2018-07-12T03:53:06.363Z,17.95
2018-07-12T03:53:32.518Z,17.97
2018-07-12T03:53:58.658Z,17.97
2018-07-12T03:54:24.833Z,18.01
2018-07-12T03:54:50.987Z,17.97
2018-07-12T03:55:17.133Z,17.95
2018-07-12T03:55:43.270Z,17.86
2018-07-12T03:56:09.411Z,17.9
2018-07-12T03:56:35.570Z,17.92
2018-07-12T03:57:01.705Z,17.94
2018-07-12T03:57:27.849Z,17.9
2018-07-12T03:57:53.993Z,17.92
2018-07-12T03:58:20.125Z,17.92
2018-07-12T03:58:46.285Z,17.94
2018-07-12T03:59:12.454Z,17.95
2018-07-12T03:59:38.596Z,17.94
2018-07-12T04:00:04.803Z,18
2018-07-12T04:00:30.969Z,17.98
2018-07-12T04:00:57.109Z,17.98
2018-07-12T04:01:23.286Z,18.04
2018-07-12T04:01:49.443Z,18.04
2018-07-12T04:02:15.576Z,18
2018-07-12T04:02:41.717Z,18.03
2018-07-12T04:03:07.883Z,18.1
2018-07-12T04:03:34.066Z,18.05
2018-07-12T04:04:00.157Z,18.08
2018-07-12T04:04:26.289Z,18.08
2018-07-12T04:04:52.437Z,18.08
2018-07-12T04:05:18.589Z,18.03
2018-07-12T04:05:44.729Z,18.1
2018-07-12T04:06:10.884Z,18.04
2018-07-12T04:06:37.028Z,18.05
2018-07-12T04:07:03.159Z,18.1
2018-07-12T04:07:29.289Z,18.15
2018-07-12T04:07:55.433Z,18.15
2018-07-12T04:08:21.564Z,18.11
2018-07-12T04:08:47.720Z,18.19
2018-07-12T04:09:13.890Z,18.15
2018-07-12T04:09:40.021Z,18.07
2018-07-12T04:10:06.166Z,18.16
2018-07-12T04:10:32.325Z,18.18
2018-07-12T04:10:58.551Z,18.19
2018-07-12T04:11:24.672Z,18.16
2018-07-12T04:11:50.806Z,18.18
2018-07-12T04:12:16.942Z,18.16
2018-07-12T04:12:43.082Z,18.19
2018-07-12T04:13:09.216Z,18.26
2018-07-12T04:13:35.348Z,18.2
2018-07-12T04:14:01.484Z,18.2
2018-07-12T04:14:27.643Z,18.23
2018-07-12T04:14:53.811Z,18.19
2018-07-12T04:15:19.955Z,18.25
2018-07-12T04:15:46.090Z,18.2
2018-07-12T04:16:12.234Z,18.22
2018-07-12T04:16:38.411Z,18.25
2018-07-12T04:17:04.575Z,18.28
2018-07-12T04:17:30.709Z,18.29
2018-07-12T04:17:56.851Z,18.26
2018-07-12T04:18:22.990Z,18.31
2018-07-12T04:18:49.132Z,18.28
2018-07-12T04:19:15.312Z,18.26
2018-07-12T04:19:41.455Z,18.28
2018-07-12T04:20:07.595Z,18.28
2018-07-12T04:20:33.730Z,18.22
2018-07-12T04:20:59.872Z,18.23
2018-07-12T04:21:26.000Z,18.2
2018-07-12T04:21:52.141Z,18.19
2018-07-12T04:22:18.274Z,18.28
2018-07-12T04:22:44.415Z,18.29
2018-07-12T04:23:10.577Z,18.28
2018-07-12T04:23:36.712Z,18.31
2018-07-12T04:24:02.841Z,18.28
2018-07-12T04:24:28.979Z,18.28
2018-07-12T04:24:55.143Z,18.23
2018-07-12T04:25:21.286Z,18.26
2018-07-12T04:25:47.418Z,18.28
2018-07-12T04:26:13.559Z,18.26
2018-07-12T04:26:39.697Z,18.31
2018-07-12T04:27:05.837Z,18.29
2018-07-12T04:27:31.974Z,18.34
2018-07-12T04:27:58.106Z,18.31
2018-07-12T04:28:24.253Z,18.37
2018-07-12T04:28:50.389Z,18.43
2018-07-12T04:29:16.526Z,18.33
2018-07-12T04:29:42.662Z,18.37
2018-07-12T04:30:08.795Z,18.37
2018-07-12T04:30:34.939Z,18.37
2018-07-12T04:31:01.108Z,18.31
2018-07-12T04:31:27.274Z,18.41
2018-07-12T04:31:53.411Z,18.38
2018-07-12T04:32:19.550Z,18.37
2018-07-12T04:32:45.692Z,18.43
2018-07-12T04:33:11.823Z,18.31
2018-07-12T04:33:37.991Z,18.35
2018-07-12T04:34:04.123Z,18.31
2018-07-12T04:34:30.256Z,18.4
2018-07-12T04:34:56.411Z,18.44
2018-07-12T04:35:22.557Z,18.4
2018-07-12T04:35:48.711Z,18.44
2018-07-12T04:36:14.869Z,18.47
2018-07-12T04:36:41.003Z,18.38
2018-07-12T04:37:07.165Z,18.35
2018-07-12T04:37:33.304Z,18.47
2018-07-12T04:37:59.443Z,18.44
2018-07-12T04:38:25.574Z,18.47
2018-07-12T04:38:51.710Z,18.52
2018-07-12T04:39:17.853Z,18.5
2018-07-12T04:39:43.994Z,18.52
2018-07-12T04:40:10.163Z,18.49
2018-07-12T04:40:36.304Z,18.56
2018-07-12T04:41:02.464Z,18.49
2018-07-12T04:41:28.609Z,18.5
2018-07-12T04:41:54.739Z,18.55
2018-07-12T04:42:20.882Z,18.55
2018-07-12T04:42:47.020Z,18.55
2018-07-12T04:43:13.155Z,18.49
2018-07-12T04:43:39.293Z,18.59
2018-07-12T04:44:05.476Z,18.62
2018-07-12T04:44:31.615Z,18.62
2018-07-12T04:44:57.758Z,18.62
2018-07-12T04:45:23.893Z,18.68
2018-07-12T04:45:50.081Z,18.65
2018-07-12T04:46:16.223Z,18.52
2018-07-12T04:46:42.357Z,18.63
2018-07-12T04:47:08.495Z,18.62
2018-07-12T04:47:34.636Z,18.66
2018-07-12T04:48:00.773Z,18.66
2018-07-12T04:48:26.908Z,18.63
2018-07-12T04:48:53.072Z,18.7
2018-07-12T04:49:19.209Z,18.66
2018-07-12T04:49:45.352Z,18.68
2018-07-12T04:50:11.487Z,18.71
2018-07-12T04:50:37.627Z,18.77
2018-07-12T04:51:03.785Z,18.78
2018-07-12T04:51:29.920Z,18.9
2018-07-12T04:51:56.060Z,19.09
2018-07-12T04:52:22.216Z,19.24
2018-07-12T04:52:48.352Z,19.34
2018-07-12T04:53:14.488Z,19.54
2018-07-12T04:53:40.624Z,19.62
2018-07-12T04:54:06.762Z,19.7
2018-07-12T04:54:32.902Z,19.67
2018-07-12T04:54:59.056Z,19.66
2018-07-12T04:55:25.196Z,19.63
2018-07-12T04:55:51.329Z,19.63
2018-07-12T04:56:17.465Z,19.58
2018-07-12T04:56:43.609Z,19.56
2018-07-12T04:57:09.748Z,19.59
2018-07-12T04:57:35.884Z,19.63
2018-07-12T04:58:02.024Z,19.59
2018-07-12T04:58:28.185Z,19.67
2018-07-12T04:58:54.294Z,19.79
2018-07-12T04:59:20.443Z,19.95
2018-07-12T04:59:46.603Z,20.06
2018-07-12T05:00:12.766Z,20.28
2018-07-12T05:00:38.911Z,20.47
2018-07-12T05:01:05.047Z,20.62
2018-07-12T05:01:31.189Z,20.87
2018-07-12T05:01:57.324Z,21.11
2018-07-12T05:02:23.472Z,21.24
2018-07-12T05:02:49.607Z,21.42
2018-07-12T05:03:15.770Z,21.61
2018-07-12T05:03:41.929Z,21.83
2018-07-12T05:04:08.098Z,21.99
2018-07-12T05:04:34.234Z,22.15
2018-07-12T05:05:00.376Z,22.18
2018-07-12T05:05:26.513Z,22.36
2018-07-12T05:05:52.658Z,22.43
2018-07-12T05:06:18.794Z,22.54
2018-07-12T05:06:44.951Z,22.5
2018-07-12T05:07:11.082Z,22.54
2018-07-12T05:07:37.218Z,22.68
2018-07-12T05:08:03.400Z,22.66
2018-07-12T05:08:29.541Z,22.69
2018-07-12T05:08:55.730Z,22.78
2018-07-12T05:09:21.852Z,22.73
2018-07-12T05:09:48.018Z,22.72
2018-07-12T05:10:14.151Z,22.72
2018-07-12T05:10:40.312Z,22.85
2018-07-12T05:11:06.450Z,22.72
2018-07-12T05:11:32.588Z,22.81
2018-07-12T05:11:58.720Z,22.68
2018-07-12T05:12:24.889Z,22.68
2018-07-12T05:12:51.030Z,22.7
2018-07-12T05:13:17.193Z,22.62
2018-07-12T05:13:43.340Z,22.62
2018-07-12T05:14:09.499Z,22.6
2018-07-12T05:14:35.636Z,22.48
2018-07-12T05:15:01.776Z,22.47
2018-07-12T05:15:27.911Z,22.39
2018-07-12T05:15:54.105Z,22.41
2018-07-12T05:16:20.210Z,22.26
2018-07-12T05:16:46.353Z,22.29
2018-07-12T05:17:12.485Z,22.15
2018-07-12T05:17:38.622Z,22.11
2018-07-12T05:18:04.760Z,22
2018-07-12T05:18:30.903Z,22.02
2018-07-12T05:18:57.038Z,22.07
2018-07-12T05:19:23.174Z,22.04
2018-07-12T05:19:49.312Z,21.96
2018-07-12T05:20:16.664Z,21.88
2018-07-12T05:20:43.468Z,21.7
2018-07-12T05:21:09.605Z,21.69
2018-07-12T05:21:35.756Z,21.7
2018-07-12T05:22:02.015Z,21.58
2018-07-12T05:22:28.042Z,21.6
2018-07-12T05:22:54.182Z,21.6
2018-07-12T05:23:21.860Z,21.57
2018-07-12T05:23:48.023Z,21.54
2018-07-12T05:24:14.160Z,21.51
2018-07-12T05:24:40.319Z,21.52
2018-07-12T05:25:06.463Z,21.43
2018-07-12T05:25:32.598Z,21.48
2018-07-12T05:25:58.741Z,21.39
2018-07-12T05:26:24.876Z,21.33
2018-07-12T05:26:51.028Z,21.37
2018-07-12T05:27:17.161Z,21.2
2018-07-12T05:27:43.299Z,21.24
2018-07-12T05:28:09.438Z,21.15
2018-07-12T05:28:35.575Z,21.09
2018-07-12T05:29:01.723Z,21.14
2018-07-12T05:29:27.863Z,21.06
2018-07-12T05:29:54.005Z,21.12
2018-07-12T05:30:20.146Z,21.14
2018-07-12T05:30:46.351Z,21.11
2018-07-12T05:31:12.462Z,21.07
2018-07-12T05:31:38.634Z,21.11
2018-07-12T05:32:04.815Z,21.03
2018-07-12T05:32:30.960Z,21.11
2018-07-12T05:32:57.108Z,21.07
2018-07-12T05:33:23.247Z,20.99
2018-07-12T05:33:49.393Z,20.93
2018-07-12T05:34:15.528Z,21.02
2018-07-12T05:34:41.670Z,21
2018-07-12T05:35:07.807Z,20.95
2018-07-12T05:35:33.948Z,20.9
2018-07-12T05:36:00.095Z,20.92
2018-07-12T05:36:26.283Z,20.95
2018-07-12T05:36:52.424Z,20.93
2018-07-12T05:37:18.567Z,20.9
2018-07-12T05:37:44.704Z,20.9
2018-07-12T05:38:10.850Z,20.92
2018-07-12T05:38:36.986Z,20.88
2018-07-12T05:39:03.277Z,20.84